High Bridge, New Jersey
Current Conditions -  °F | °C
As of 7:53 PM on Friday 19 Dec 2014 (Local Time) from KSMQ Reporting Station
Overcast Overcast  
Wind Chill: 23°   Ceiling: 3200
Heat Index: 32°   Visibility: 10mi
Dew Point: 19°   Wind: 13mph
Humidity: 59%   Direction: 330°NNW
Pressure: 30.15"   Gusts: NA
Location:  40.67°N, 74.9°W
Report Text: KSMQ 200053Z AUTO 33011KT 10SM OVC032 00/M07 A3015 RMK AO2 SLP213 T00001072
Loading
Personal Weather Stations






























Interactive Weather Map New forecast layout! Learn more

10-Day Weather Forecast

Advertisements
Track Severe Weather on mobile